Time;durP1;ratioP1;P1;durP2;ratioP2;P2;SDS_P1;SDS_P2;PMS_P1;PMS_P2;Temp;Humidity;BMP_temperature;BMP_pressure;BME280_temperature;BME280_humidity;BME280_pressure;Samples;Min_cycle;Max_cycle;Signal;HPM_P1;HPM_P2
2022/01/20 00:02:18;;;;;;;7.83;7.03;;;;;;;3.13;100.00;101106.25;5022383;28;20209;-46
2022/01/20 00:05:03;;;;;;;7.50;6.80;;;;;;;3.09;100.00;101115.50;5015072;28;20185;-47
2022/01/20 00:07:44;;;;;;;6.70;6.10;;;;;;;3.11;100.00;101116.44;5027843;28;20224;-45
2022/01/20 00:26:52;;;;;;;9.63;8.33;;;;;;;3.02;100.00;101128.91;4979745;28;20195;-46
2022/01/20 00:29:25;;;;;;;12.50;8.97;;;;;;;3.03;100.00;101128.97;5013552;28;20210;-46
2022/01/20 00:32:05;;;;;;;9.43;8.27;;;;;;;3.00;100.00;101126.28;5031093;28;20237;-46
2022/01/20 00:34:54;;;;;;;17.77;10.87;;;;;;;2.99;100.00;101132.22;5027987;28;20662;-46
2022/01/20 00:37:17;;;;;;;12.33;8.70;;;;;;;2.97;100.00;101133.84;5028839;28;20199;-46
2022/01/20 00:39:43;;;;;;;8.73;7.43;;;;;;;2.97;100.00;101140.66;5026557;28;20204;-47
2022/01/20 00:42:08;;;;;;;7.87;6.63;;;;;;;2.98;100.00;101145.81;5036077;28;20184;-46
2022/01/20 00:44:34;;;;;;;7.77;6.97;;;;;;;3.00;100.00;101159.53;5036136;28;20588;-46
2022/01/20 00:47:00;;;;;;;7.67;6.83;;;;;;;2.96;100.00;101152.56;5020026;28;20284;-46
2022/01/20 00:49:25;;;;;;;7.90;7.10;;;;;;;2.96;100.00;101159.38;5024161;28;20225;-46
2022/01/20 00:51:51;;;;;;;8.57;7.67;;;;;;;2.97;100.00;101153.44;5021120;28;20215;-46
2022/01/20 00:54:16;;;;;;;8.73;7.83;;;;;;;2.96;100.00;101160.22;5020857;28;20184;-46
2022/01/20 00:56:42;;;;;;;7.37;6.43;;;;;;;2.93;100.00;101159.25;5011218;28;20245;-46
2022/01/20 00:59:07;;;;;;;8.67;7.20;;;;;;;2.92;100.00;101166.06;5032159;28;20231;-46
2022/01/20 01:01:32;;;;;;;8.57;7.67;;;;;;;2.93;100.00;101154.13;5039008;28;20217;-46
2022/01/20 01:03:58;;;;;;;8.67;7.77;;;;;;;2.93;100.00;101161.81;5030058;28;20191;-46
2022/01/20 01:09:15;;;;;;;9.33;8.33;;;;;;;2.90;100.00;101171.09;5017369;28;20277;-46
2022/01/20 01:11:43;;;;;;;7.80;7.00;;;;;;;2.91;100.00;101164.31;5017802;28;20755;-45
2022/01/20 01:14:08;;;;;;;7.87;7.07;;;;;;;2.90;100.00;101167.69;5032859;28;20496;-45
2022/01/20 01:20:05;;;;;;;7.67;6.57;;;;;;;2.92;100.00;101183.06;5022378;28;20210;-46
2022/01/20 01:24:37;;;;;;;9.80;7.90;;;;;;;2.92;100.00;101165.19;5041239;28;20194;-45
2022/01/20 01:27:04;;;;;;;8.50;7.60;;;;;;;2.88;100.00;101166.75;5025127;28;20203;-47
2022/01/20 01:32:17;;;;;;;8.40;7.50;;;;;;;2.85;100.00;101180.31;5040401;28;20194;-46
2022/01/20 01:34:48;;;;;;;7.87;6.80;;;;;;;2.83;100.00;101166.59;5031490;28;20625;-46
2022/01/20 01:40:00;;;;;;;6.93;6.23;;;;;;;2.84;100.00;101175.13;5002742;28;20277;-46
2022/01/20 01:42:29;;;;;;;7.20;6.50;;;;;;;2.84;100.00;101170.00;5017619;28;20297;-46
2022/01/20 01:44:55;;;;;;;6.47;5.87;;;;;;;2.81;100.00;101170.78;5020870;28;20646;-46
2022/01/20 01:47:20;;;;;;;6.60;5.97;;;;;;;2.78;100.00;101174.91;5032062;28;20545;-46
2022/01/20 01:49:46;;;;;;;7.67;5.90;;;;;;;2.76;100.00;101171.41;5037009;28;20246;-46
2022/01/20 01:52:11;;;;;;;6.77;6.07;;;;;;;2.75;100.00;101165.41;5037499;28;20976;-46
2022/01/20 01:54:36;;;;;;;7.50;5.97;;;;;;;2.74;100.00;101162.00;5037907;28;20221;-46
2022/01/20 01:57:06;;;;;;;6.33;5.73;;;;;;;2.72;100.00;101170.44;5030353;28;20241;-46
2022/01/20 01:59:32;;;;;;;6.70;6.00;;;;;;;2.71;100.00;101176.38;5039583;28;20273;-46
2022/01/20 02:01:58;;;;;;;6.37;5.80;;;;;;;2.70;100.00;101177.19;5036633;28;20182;-46
2022/01/20 02:04:23;;;;;;;6.90;6.20;;;;;;;2.71;100.00;101167.00;5036730;28;20195;-46
2022/01/20 02:20:21;;;;;;;5.90;5.40;;;;;;;2.75;100.00;101175.66;5032254;28;20280;-45
2022/01/20 02:22:47;;;;;;;5.90;5.40;;;;;;;2.73;100.00;101170.50;5017332;28;20208;-46
2022/01/20 02:25:27;;;;;;;6.70;6.10;;;;;;;2.75;100.00;101173.09;5041991;28;20217;-46
2022/01/20 02:27:53;;;;;;;7.37;6.13;;;;;;;2.71;100.00;101178.94;5027314;28;20336;-46
2022/01/20 02:30:20;;;;;;;5.80;5.20;;;;;;;2.70;100.00;101179.75;5010614;28;20196;-45
2022/01/20 02:33:23;;;;;;;6.73;6.03;;;;;;;2.69;100.00;101183.09;5016656;28;20290;-46
2022/01/20 02:35:59;;;;;;;6.77;6.07;;;;;;;2.69;100.00;101189.06;5037950;28;20210;-46
2022/01/20 02:38:36;;;;;;;6.37;5.77;;;;;;;2.69;100.00;101178.84;5033197;28;20206;-45
2022/01/20 02:46:35;;;;;;;6.63;5.93;;;;;;;2.64;100.00;101185.50;5025867;28;20220;-46
2022/01/20 02:49:00;;;;;;;6.40;5.80;;;;;;;2.66;100.00;101175.31;5038545;28;20211;-47
2022/01/20 02:51:26;;;;;;;6.63;6.03;;;;;;;2.64;100.00;101172.72;5032257;28;20282;-48
2022/01/20 02:53:52;;;;;;;6.73;6.10;;;;;;;2.66;100.00;101190.66;5045622;28;20610;-46
2022/01/20 02:56:17;;;;;;;6.13;5.53;;;;;;;2.64;100.00;101187.16;5030711;28;20681;-47
2022/01/20 02:58:43;;;;;;;5.80;5.30;;;;;;;2.64;100.00;101182.94;5035713;28;20210;-47
2022/01/20 03:01:08;;;;;;;6.10;5.50;;;;;;;2.66;100.00;101167.66;5009947;28;20275;-46
2022/01/20 03:03:35;;;;;;;5.90;5.30;;;;;;;2.67;100.00;101162.59;5027349;28;20191;-46
2022/01/20 03:06:01;;;;;;;6.63;6.03;;;;;;;2.68;100.00;101158.34;5017568;28;20213;-46
2022/01/20 03:08:27;;;;;;;6.13;5.53;;;;;;;2.65;100.00;101156.53;5027821;28;20210;-46
2022/01/20 03:10:52;;;;;;;6.23;5.63;;;;;;;2.67;100.00;101164.28;5021453;28;20547;-46
2022/01/20 03:13:18;;;;;;;6.40;5.80;;;;;;;2.72;100.00;101165.34;5020483;28;20194;-46
2022/01/20 03:15:43;;;;;;;6.20;5.60;;;;;;;2.68;100.00;101161.78;5033055;28;20186;-46
2022/01/20 03:18:09;;;;;;;6.30;5.70;;;;;;;2.69;100.00;101155.00;5018307;28;20214;-46
2022/01/20 03:20:34;;;;;;;6.83;6.13;;;;;;;2.66;100.00;101152.31;5035404;28;20184;-45
2022/01/20 03:23:00;;;;;;;6.77;6.17;;;;;;;2.63;100.00;101152.19;5032124;28;20201;-45
2022/01/20 03:25:27;;;;;;;6.87;6.27;;;;;;;2.64;100.00;101148.81;5031672;28;20496;-46
2022/01/20 03:27:52;;;;;;;6.23;5.63;;;;;;;2.64;100.00;101147.16;5011788;28;20239;-46
2022/01/20 03:30:17;;;;;;;6.60;6.00;;;;;;;2.63;100.00;101140.31;5031823;28;20221;-46
2022/01/20 03:32:43;;;;;;;6.60;5.97;;;;;;;2.64;100.00;101130.94;5023809;28;20327;-46
2022/01/20 03:35:11;;;;;;;5.77;5.27;;;;;;;2.65;100.00;101133.53;5040323;28;20182;-46
2022/01/20 03:37:37;;;;;;;6.33;5.73;;;;;;;2.68;100.00;101137.91;5030826;28;20570;-46
2022/01/20 03:40:04;;;;;;;6.43;5.83;;;;;;;2.66;100.00;101135.28;5038451;28;20183;-46
2022/01/20 03:42:29;;;;;;;7.40;6.03;;;;;;;2.67;100.00;101139.56;5024548;28;20192;-46
2022/01/20 03:44:55;;;;;;;6.83;6.20;;;;;;;2.69;100.00;101143.06;5022290;28;20203;-46
2022/01/20 03:47:23;;;;;;;6.50;5.87;;;;;;;2.68;100.00;101141.31;5040698;28;20194;-46
2022/01/20 03:50:06;;;;;;;6.37;5.77;;;;;;;2.68;100.00;101141.31;5034485;28;20729;-46
2022/01/20 03:52:31;;;;;;;6.03;5.50;;;;;;;2.71;100.00;101140.59;5032385;28;20194;-46
2022/01/20 03:54:57;;;;;;;6.37;5.77;;;;;;;2.70;100.00;101152.47;5024797;28;20184;-46
2022/01/20 03:57:22;;;;;;;6.60;6.00;;;;;;;2.72;100.00;101150.84;5014317;28;20674;-46
2022/01/20 03:59:47;;;;;;;5.93;5.33;;;;;;;2.76;100.00;101145.88;5013930;28;20175;-46
2022/01/20 04:02:13;;;;;;;6.43;5.50;;;;;;;2.76;100.00;101148.41;5039108;28;20183;-46
2022/01/20 04:04:38;;;;;;;6.50;5.90;;;;;;;2.76;100.00;101153.53;5029755;28;20638;-45
2022/01/20 04:07:05;;;;;;;6.57;5.83;;;;;;;2.76;100.00;101161.19;5035060;28;20192;-46
2022/01/20 04:09:30;;;;;;;6.40;5.80;;;;;;;2.77;100.00;101168.06;5035460;28;20233;-46
2022/01/20 04:11:56;;;;;;;6.67;5.93;;;;;;;2.78;100.00;101165.53;5027666;28;20187;-45
2022/01/20 04:14:23;;;;;;;6.87;6.17;;;;;;;2.78;100.00;101157.03;5033208;28;20184;-46
2022/01/20 04:17:00;;;;;;;7.10;6.40;;;;;;;2.79;100.00;101159.63;5027731;28;20180;-45
2022/01/20 04:19:26;;;;;;;6.80;6.10;;;;;;;2.79;100.00;101162.19;5030456;28;20199;-45
2022/01/20 04:21:52;;;;;;;7.00;6.30;;;;;;;2.79;100.00;101159.63;5035442;28;20682;-46
2022/01/20 04:24:18;;;;;;;6.73;6.13;;;;;;;2.82;100.00;101162.28;5031744;28;20233;-45
2022/01/20 04:26:45;;;;;;;6.77;6.10;;;;;;;2.82;100.00;101159.75;5002991;28;20210;-46
2022/01/20 04:29:12;;;;;;;7.03;6.33;;;;;;;2.81;100.00;101169.88;5035884;28;20290;-45
2022/01/20 04:31:40;;;;;;;7.10;6.40;;;;;;;2.84;100.00;101173.44;5029381;28;20237;-45
2022/01/20 04:34:07;;;;;;;7.83;6.93;;;;;;;2.84;100.00;101175.13;5036391;28;20215;-45
2022/01/20 04:36:36;;;;;;;8.53;7.20;;;;;;;2.82;100.00;101177.63;5028848;28;20628;-45
2022/01/20 04:39:05;;;;;;;7.33;6.63;;;;;;;2.82;100.00;101181.84;5042103;28;20284;-47
2022/01/20 04:41:31;;;;;;;7.30;6.60;;;;;;;2.81;100.00;101190.34;5020824;28;20253;-47
2022/01/20 04:44:01;;;;;;;8.20;7.10;;;;;;;2.83;100.00;101189.59;5045325;28;20182;-45
2022/01/20 04:46:40;;;;;;;;;;;;;;;;;;;;;
2022/01/20 04:59:33;;;;;;;8.13;7.33;;;;;;;2.87;100.00;101167.56;5037541;28;20285;-47
2022/01/20 05:01:59;;;;;;;8.20;7.40;;;;;;;2.87;100.00;101170.13;5034128;28;20194;-47
2022/01/20 05:04:25;;;;;;;7.67;6.97;;;;;;;2.86;100.00;101176.94;5023579;28;20366;-47
2022/01/20 05:06:54;;;;;;;7.90;7.10;;;;;;;2.86;100.00;101181.16;5028287;28;20222;-47
2022/01/20 05:09:21;;;;;;;8.13;7.33;;;;;;;2.87;100.00;101182.91;5036224;28;20222;-47
2022/01/20 05:11:52;;;;;;;7.73;6.93;;;;;;;2.87;100.00;101178.66;5040004;28;20220;-46
2022/01/20 05:14:17;;;;;;;8.30;6.93;;;;;;;2.91;100.00;101187.34;5036346;28;20244;-46
2022/01/20 05:16:44;;;;;;;7.40;6.70;;;;;;;2.93;100.00;101167.81;5040429;28;20204;-46
2022/01/20 05:19:09;;;;;;;8.87;7.17;;;;;;;2.97;100.00;101164.53;5027738;28;20215;-46
2022/01/20 05:21:34;;;;;;;7.90;6.93;;;;;;;2.97;100.00;101156.84;5035441;28;20189;-45
2022/01/20 05:24:00;;;;;;;9.63;8.10;;;;;;;2.95;100.00;101170.41;5043348;28;20191;-46
2022/01/20 05:26:26;;;;;;;9.17;8.27;;;;;;;2.96;100.00;101159.38;5040149;28;20188;-47
2022/01/20 05:28:51;;;;;;;10.73;9.63;;;;;;;2.94;100.00;101156.78;5043758;28;20288;-46
2022/01/20 05:31:17;;;;;;;9.60;8.10;;;;;;;2.91;100.00;101179.66;5043089;28;20215;-46
2022/01/20 05:33:42;;;;;;;9.33;8.23;;;;;;;2.90;100.00;101170.25;5038363;28;20188;-47
2022/01/20 05:36:08;;;;;;;9.57;8.67;;;;;;;2.92;100.00;101152.38;5044077;28;20536;-46
2022/01/20 05:38:33;;;;;;;10.07;8.90;;;;;;;2.91;100.00;101156.66;5038465;28;20289;-46
2022/01/20 05:40:59;;;;;;;10.23;8.83;;;;;;;2.90;100.00;101148.09;5018764;28;20278;-46
2022/01/20 05:43:24;;;;;;;9.83;8.83;;;;;;;2.91;100.00;101148.97;5037493;28;20188;-46
2022/01/20 05:45:50;;;;;;;10.37;9.20;;;;;;;2.89;100.00;101154.03;5037769;28;20179;-46
2022/01/20 05:48:17;;;;;;;10.33;9.13;;;;;;;2.92;100.00;101165.19;5032138;28;20207;-46
2022/01/20 05:50:44;;;;;;;9.93;8.93;;;;;;;2.88;100.00;101171.88;5038137;28;20293;-46
2022/01/20 05:53:10;;;;;;;10.37;9.20;;;;;;;2.88;100.00;101172.72;5038013;28;20190;-46
2022/01/20 05:55:37;;;;;;;9.87;8.87;;;;;;;2.88;100.00;101162.50;5030090;28;20632;-46
2022/01/20 05:58:05;;;;;;;9.90;8.93;;;;;;;2.90;100.00;101173.66;5038493;28;20283;-46
2022/01/20 06:00:32;;;;;;;10.07;9.00;;;;;;;2.88;100.00;101177.84;5014716;28;20188;-46
2022/01/20 06:05:42;;;;;;;10.93;8.93;;;;;;;2.86;100.00;101181.16;5036309;28;20269;-45
2022/01/20 06:08:08;;;;;;;11.20;9.93;;;;;;;2.82;100.00;101180.19;5040929;28;20262;-46
2022/01/20 06:10:34;;;;;;;11.30;10.20;;;;;;;2.81;100.00;101177.56;5034892;28;20210;-45
2022/01/20 06:13:00;;;;;;;10.67;9.57;;;;;;;2.77;100.00;101178.28;5028989;28;20187;-47
2022/01/20 06:15:25;;;;;;;10.63;9.53;;;;;;;2.77;100.00;101184.25;5037420;28;20244;-46
2022/01/20 06:17:51;;;;;;;11.47;10.27;;;;;;;2.76;100.00;101179.09;5028487;28;20298;-45
2022/01/20 06:20:16;;;;;;;11.27;10.03;;;;;;;2.75;100.00;101175.66;5028440;28;20241;-45
2022/01/20 06:22:42;;;;;;;10.97;9.83;;;;;;;2.76;100.00;101171.41;5030384;28;20188;-45
2022/01/20 06:25:08;;;;;;;11.67;10.47;;;;;;;2.76;100.00;101184.22;5038740;28;20180;-46
2022/01/20 06:27:34;;;;;;;12.03;10.80;;;;;;;2.76;100.00;101187.63;5029748;28;20251;-46
2022/01/20 06:29:59;;;;;;;11.33;10.00;;;;;;;2.77;100.00;101180.84;5012096;28;20350;-46
2022/01/20 06:32:25;;;;;;;12.17;10.97;;;;;;;2.73;100.00;101167.94;5014911;28;20193;-46
2022/01/20 06:34:51;;;;;;;10.97;9.87;;;;;;;2.67;100.00;101180.47;5001025;28;20706;-46
2022/01/20 06:37:16;;;;;;;10.97;9.77;;;;;;;2.62;100.00;101170.88;5040897;28;20606;-46
2022/01/20 06:39:42;;;;;;;12.37;10.67;;;;;;;2.57;100.00;101152.84;5026257;28;20211;-46
2022/01/20 06:42:07;;;;;;;12.70;11.40;;;;;;;2.55;100.00;101164.69;5041118;28;20736;-46
2022/01/20 06:44:33;;;;;;;12.57;11.23;;;;;;;2.55;100.00;101157.91;5041116;28;20207;-46
2022/01/20 06:46:58;;;;;;;12.30;11.00;;;;;;;2.57;100.00;101160.50;5011944;28;20226;-46
2022/01/20 06:49:24;;;;;;;12.57;11.13;;;;;;;2.58;100.00;101164.81;5009501;28;20703;-46
2022/01/20 06:51:49;;;;;;;11.97;10.77;;;;;;;2.57;100.00;101170.72;4997310;28;20672;-46
2022/01/20 06:54:16;;;;;;;11.80;10.70;;;;;;;2.53;100.00;101164.63;5023118;28;20187;-46
2022/01/20 06:56:41;;;;;;;12.77;11.57;;;;;;;2.47;100.00;101164.38;5012767;28;20227;-46
2022/01/20 06:59:12;;;;;;;12.43;11.13;;;;;;;2.43;100.00;101172.75;5016640;28;20636;-45
2022/01/20 07:01:39;;;;;;;11.63;10.43;;;;;;;2.43;100.00;101183.84;5015435;28;20534;-46
2022/01/20 07:04:04;;;;;;;11.30;9.97;;;;;;;2.48;100.00;101186.56;5011749;28;20184;-45
2022/01/20 07:06:30;;;;;;;11.83;9.97;;;;;;;2.55;100.00;101196.22;5011221;28;20199;-45
2022/01/20 07:08:55;;;;;;;11.50;10.23;;;;;;;2.61;100.00;101202.38;4999769;28;20211;-46
2022/01/20 07:11:21;;;;;;;9.53;8.47;;;;;;;2.67;100.00;101197.50;5024104;28;20516;-46
2022/01/20 07:13:46;;;;;;;10.43;9.33;;;;;;;2.71;100.00;101196.81;4993457;28;20230;-46
2022/01/20 07:16:11;;;;;;;10.97;9.87;;;;;;;2.73;100.00;101198.59;5010798;28;20679;-46
2022/01/20 07:18:37;;;;;;;13.90;11.53;;;;;;;2.75;100.00;101211.44;5023517;28;20211;-45
2022/01/20 07:21:02;;;;;;;13.03;11.73;;;;;;;2.77;100.00;101214.06;5020201;28;20184;-45
2022/01/20 07:23:28;;;;;;;11.20;10.10;;;;;;;2.78;100.00;101228.59;5029624;28;20266;-45
2022/01/20 07:25:53;;;;;;;12.43;11.13;;;;;;;2.76;100.00;101230.22;5039539;28;20190;-45
2022/01/20 07:28:18;;;;;;;12.67;10.77;;;;;;;2.74;100.00;101231.03;5013866;28;20212;-45
2022/01/20 07:30:44;;;;;;;11.57;10.37;;;;;;;2.76;100.00;101233.63;5012309;28;20273;-45
2022/01/20 07:33:10;;;;;;;12.47;10.40;;;;;;;2.79;100.00;101248.22;4996361;28;20181;-46
2022/01/20 07:35:36;;;;;;;12.30;10.20;;;;;;;2.80;100.00;101255.94;5011931;28;20644;-46
2022/01/20 07:38:06;;;;;;;11.20;10.07;;;;;;;2.83;100.00;101262.84;5025842;28;20208;-47
2022/01/20 07:40:32;;;;;;;12.73;11.43;;;;;;;2.84;100.00;101269.72;5035070;28;20183;-46
2022/01/20 07:42:59;;;;;;;11.37;10.17;;;;;;;2.84;100.00;101270.59;5032902;28;20195;-46
2022/01/20 07:45:25;;;;;;;13.40;11.10;;;;;;;2.87;100.00;101274.94;5019491;28;20272;-46
2022/01/20 07:47:51;;;;;;;12.23;10.57;;;;;;;2.88;100.00;101275.00;5008544;28;20237;-46
2022/01/20 07:50:16;;;;;;;10.67;9.57;;;;;;;2.89;100.00;101273.34;5041521;28;20223;-46
2022/01/20 07:52:42;;;;;;;11.20;10.00;;;;;;;2.91;100.00;101279.38;5044542;28;20195;-46
2022/01/20 07:55:07;;;;;;;12.13;10.93;;;;;;;2.93;100.00;101282.88;5023191;28;20611;-48
2022/01/20 07:57:33;;;;;;;11.67;10.50;;;;;;;2.96;100.00;101284.66;5031693;28;20274;-49
2022/01/20 07:59:59;;;;;;;11.27;9.77;;;;;;;2.97;100.00;101281.28;5033169;28;20533;-47
2022/01/20 08:02:25;;;;;;;12.50;11.00;;;;;;;2.99;100.00;101287.34;5000159;28;20211;-45
2022/01/20 08:04:50;;;;;;;12.57;11.17;;;;;;;3.02;100.00;101284.91;5009726;28;20180;-47
2022/01/20 08:07:16;;;;;;;11.40;10.20;;;;;;;3.02;100.00;101285.78;5018024;28;20578;-45
2022/01/20 08:09:41;;;;;;;12.33;11.03;;;;;;;3.03;100.00;101271.28;5030591;28;20543;-45
2022/01/20 08:12:07;;;;;;;12.03;10.83;;;;;;;3.02;100.00;101267.88;5021912;28;20187;-47
2022/01/20 08:14:32;;;;;;;12.60;11.30;;;;;;;3.03;100.00;101266.16;5029519;28;20194;-47
2022/01/20 08:16:57;;;;;;;12.30;11.10;;;;;;;3.04;100.00;101267.91;5014566;28;20754;-47
2022/01/20 08:19:23;;;;;;;13.33;10.60;;;;;;;3.04;100.00;101267.91;5022001;28;20602;-46
2022/01/20 08:21:48;;;;;;;10.73;9.63;;;;;;;3.04;100.00;101268.81;5026144;28;20656;-46
2022/01/20 08:24:14;;;;;;;12.00;10.80;;;;;;;3.07;100.00;101270.59;5029110;28;20176;-46
2022/01/20 08:26:39;;;;;;;12.90;11.60;;;;;;;3.09;100.00;101284.31;5029887;28;20545;-46
2022/01/20 08:29:04;;;;;;;15.00;10.47;;;;;;;3.15;100.00;101299.91;5028413;28;20210;-46
2022/01/20 08:31:31;;;;;;;11.57;10.33;;;;;;;3.17;100.00;101297.38;5015285;28;20611;-46
2022/01/20 08:33:56;;;;;;;10.90;9.80;;;;;;;3.23;100.00;101300.19;5016552;28;20413;-46
2022/01/20 08:36:22;;;;;;;10.87;9.73;;;;;;;3.30;100.00;101299.59;5025938;28;20239;-46
2022/01/20 08:38:47;;;;;;;11.03;9.80;;;;;;;3.37;100.00;101308.34;5020488;28;20265;-46
2022/01/20 08:41:13;;;;;;;11.57;10.37;;;;;;;3.43;100.00;101307.72;5028975;28;20215;-46
2022/01/20 08:43:38;;;;;;;12.03;9.63;;;;;;;3.46;100.00;101312.94;5025357;28;20258;-46
2022/01/20 08:46:09;;;;;;;13.63;9.27;;;;;;;3.48;100.00;101304.50;5022900;28;20185;-46
2022/01/20 08:48:37;;;;;;;10.63;9.53;;;;;;;3.51;100.00;101301.19;5022769;28;20283;-46
2022/01/20 08:51:03;;;;;;;10.77;9.67;;;;;;;3.55;100.00;101308.19;5012288;28;20215;-48
2022/01/20 08:53:31;;;;;;;11.50;10.30;;;;;;;3.62;100.00;101312.69;5030730;28;20647;-46
2022/01/20 08:55:57;;;;;;;10.20;9.20;;;;;;;3.66;100.00;101316.22;5031055;28;20558;-47
2022/01/20 08:58:22;;;;;;;12.67;10.40;;;;;;;3.70;100.00;101323.22;5015904;28;20208;-46
2022/01/20 09:00:48;;;;;;;11.47;9.50;;;;;;;3.77;100.00;101335.44;5017245;28;20650;-47
2022/01/20 09:03:13;;;;;;;9.57;8.03;;;;;;;3.85;100.00;101335.69;5010508;28;20188;-46
2022/01/20 09:05:38;;;;;;;12.23;9.70;;;;;;;3.94;100.00;101328.34;5004254;28;20183;-47
2022/01/20 09:08:04;;;;;;;10.13;8.33;;;;;;;3.97;100.00;101332.69;5012351;28;20567;-46
2022/01/20 09:10:37;;;;;;;10.83;9.13;;;;;;;4.02;100.00;101346.53;5022872;28;20200;-46
2022/01/20 09:15:48;;;;;;;13.37;9.37;;;;;;;4.05;100.00;101356.00;5029851;28;20240;-46
2022/01/20 09:18:14;;;;;;;10.40;8.97;;;;;;;4.09;100.00;101345.06;5019393;28;20207;-46
2022/01/20 09:20:40;;;;;;;10.47;8.20;;;;;;;4.11;100.00;101353.66;5012935;28;20628;-46
2022/01/20 09:23:07;;;;;;;12.47;9.47;;;;;;;4.12;100.00;101347.72;5031011;28;20188;-46
2022/01/20 09:25:33;;;;;;;11.90;9.43;;;;;;;4.10;100.00;101345.09;5003821;28;20196;-46
2022/01/20 09:28:00;;;;;;;11.43;8.90;;;;;;;4.11;100.00;101330.59;5026709;28;20216;-46
2022/01/20 09:30:27;;;;;;;15.30;10.03;;;;;;;4.14;100.00;101311.91;5012623;28;20316;-46
2022/01/20 09:33:00;;;;;;;11.97;9.13;;;;;;;4.16;100.00;101313.69;5020962;28;20180;-46
2022/01/20 09:35:31;;;;;;;10.43;9.33;;;;;;;4.16;100.00;101316.25;5016887;28;20281;-46
2022/01/20 09:37:57;;;;;;;9.40;8.40;;;;;;;4.22;100.00;101310.47;5024976;28;20218;-46
2022/01/20 09:40:22;;;;;;;11.27;8.97;;;;;;;4.32;100.00;101302.28;5022086;28;20193;-46
2022/01/20 09:42:48;;;;;;;11.93;8.70;;;;;;;4.42;100.00;101298.31;5020490;28;20224;-46
2022/01/20 09:45:15;;;;;;;12.53;9.10;;;;;;;4.52;100.00;101305.47;5004712;28;20245;-46
2022/01/20 09:47:43;;;;;;;10.47;9.03;;;;;;;4.60;100.00;101310.84;5025478;28;20211;-46
2022/01/20 09:50:10;;;;;;;12.43;8.83;;;;;;;4.67;100.00;101323.06;5028970;28;20246;-46
2022/01/20 09:52:36;;;;;;;10.20;8.40;;;;;;;4.73;100.00;101322.38;5021602;28;20220;-46
2022/01/20 09:55:02;;;;;;;11.03;8.73;;;;;;;4.83;100.00;101328.69;5020953;28;20223;-46
2022/01/20 09:57:27;;;;;;;12.60;8.37;;;;;;;4.92;100.00;101328.94;5032024;28;20172;-46
2022/01/20 09:59:53;;;;;;;13.47;8.70;;;;;;;5.09;100.00;101320.91;5023710;28;20638;-46
2022/01/20 10:02:19;;;;;;;11.27;8.30;;;;;;;5.17;100.00;101332.25;5011919;28;20662;-46
2022/01/20 10:04:45;;;;;;;10.00;8.10;;;;;;;5.23;100.00;101313.59;5013291;28;20240;-47
2022/01/20 10:07:13;;;;;;;10.83;8.47;;;;;;;5.29;100.00;101326.63;5029000;28;20200;-47
2022/01/20 10:09:49;;;;;;;8.83;7.37;;;;;;;5.35;100.00;101331.97;5020440;28;20193;-47
2022/01/20 10:12:17;;;;;;;9.23;7.83;;;;;;;5.45;100.00;101330.50;5025817;28;20218;-47
2022/01/20 10:14:55;;;;;;;10.80;7.70;;;;;;;5.54;100.00;101337.59;5012807;28;20195;-47
2022/01/20 10:17:23;;;;;;;11.93;7.80;;;;;;;5.59;100.00;101339.50;5011868;28;20196;-46
2022/01/20 10:19:53;;;;;;;11.23;7.67;;;;;;;5.59;100.00;101344.63;5015766;28;20640;-45
2022/01/20 10:22:23;;;;;;;11.00;8.73;;;;;;;5.61;100.00;101336.97;5032189;28;20187;-46
2022/01/20 10:25:03;;;;;;;9.83;8.13;;;;;;;5.57;100.00;101340.25;5027454;28;20194;-46
2022/01/20 10:27:31;;;;;;;11.57;7.77;;;;;;;5.55;100.00;101342.78;5027932;28;20197;-46
2022/01/20 10:30:02;;;;;;;13.30;8.13;;;;;;;5.59;100.00;101351.44;5030638;28;20650;-46
2022/01/20 10:32:38;;;;;;;12.23;8.27;;;;;;;5.61;100.00;101350.66;5020843;28;20857;-47
2022/01/20 10:35:05;;;;;;;9.37;7.73;;;;;;;5.68;100.00;101355.97;5011446;28;20189;-47
2022/01/20 10:37:31;;;;;;;7.77;6.67;;;;;;;5.74;100.00;101358.75;5011590;28;20189;-46
2022/01/20 10:40:22;;;;;;;8.67;7.07;;;;;;;5.80;100.00;101364.91;5011305;28;20195;-47
2022/01/20 10:42:48;;;;;;;8.67;7.23;;;;;;;5.82;100.00;101367.50;5024053;28;20204;-47
2022/01/20 10:45:23;;;;;;;11.17;8.00;;;;;;;5.78;100.00;101375.94;5032984;28;20290;-47
2022/01/20 10:47:59;;;;;;;7.97;6.90;;;;;;;5.71;100.00;101368.91;5041382;28;20686;-47
2022/01/20 10:50:26;;;;;;;11.20;8.33;;;;;;;5.63;100.00;101377.25;5029537;28;20562;-47
2022/01/20 10:52:52;;;;;;;11.27;8.43;;;;;;;5.54;100.00;101377.00;5029856;28;20193;-47
2022/01/20 10:55:28;;;;;;;9.63;7.50;;;;;;;5.52;100.00;101375.22;5014803;28;20721;-47
2022/01/20 10:57:55;;;;;;;10.00;7.17;;;;;;;5.53;100.00;101361.53;5032153;28;20212;-46
2022/01/20 11:00:25;;;;;;;11.90;8.37;;;;;;;5.61;100.00;101372.91;5032215;28;20255;-46
2022/01/20 11:02:56;;;;;;;10.37;8.53;;;;;;;5.72;100.00;101357.81;5014777;28;20189;-46
2022/01/20 11:05:24;;;;;;;11.47;8.70;;;;;;;5.78;100.00;101357.97;5022111;28;20183;-46
2022/01/20 11:07:49;;;;;;;11.37;8.67;;;;;;;5.85;100.00;101353.88;5041060;28;20215;-46
2022/01/20 11:10:17;;;;;;;12.83;8.90;;;;;;;5.85;100.00;101356.44;5048573;28;20199;-46
2022/01/20 11:12:42;;;;;;;12.00;8.80;;;;;;;5.82;100.00;101346.97;5014068;28;20189;-46
2022/01/20 11:15:11;;;;;;;12.03;9.27;;;;;;;5.77;100.00;101344.28;5015510;28;20183;-47
2022/01/20 11:17:40;;;;;;;10.10;8.60;;;;;;;5.72;100.00;101335.56;5017004;28;20648;-46
2022/01/20 11:20:17;;;;;;;14.43;9.17;;;;;;;5.76;100.00;101327.13;5010243;28;20595;-46
2022/01/20 11:22:56;;;;;;;11.83;8.97;;;;;;;5.85;100.00;101325.63;5031450;28;20178;-46
2022/01/20 11:25:24;;;;;;;11.10;8.57;;;;;;;5.93;100.00;101322.44;5008718;28;20645;-47
2022/01/20 11:28:17;;;;;;;13.37;10.20;;;;;;;6.04;100.00;101321.91;5010683;28;20236;-46
2022/01/20 11:30:56;;;;;;;11.03;8.90;;;;;;;6.13;100.00;101313.53;5013824;28;20578;-47
2022/01/20 11:33:42;;;;;;;13.40;9.03;;;;;;;6.14;100.00;101311.00;5022559;28;20681;-47
2022/01/20 11:36:21;;;;;;;12.80;8.50;;;;;;;6.13;100.00;101305.81;5010623;28;20552;-47
2022/01/20 11:38:49;;;;;;;9.30;7.77;;;;;;;6.09;100.00;101303.19;5011991;28;20275;-47
2022/01/20 11:41:21;;;;;;;10.37;7.67;;;;;;;6.09;100.00;101300.63;5016497;28;20180;-47
2022/01/20 11:43:52;;;;;;;11.63;8.10;;;;;;;6.14;100.00;101302.41;5034315;28;20193;-48
2022/01/20 11:46:19;;;;;;;10.93;7.47;;;;;;;6.11;100.00;101303.22;5030373;28;20751;-48
2022/01/20 11:49:00;;;;;;;14.50;10.20;;;;;;;6.06;100.00;101292.81;5012380;28;20574;-47
2022/01/20 11:51:29;;;;;;;13.20;7.90;;;;;;;5.99;100.00;101292.59;5014498;28;20224;-47
2022/01/20 11:54:01;;;;;;;12.37;7.97;;;;;;;5.89;100.00;101273.50;5010562;28;20177;-48
2022/01/20 11:56:30;;;;;;;12.37;9.03;;;;;;;5.72;100.00;101266.22;5010270;28;20186;-47
2022/01/20 11:58:55;;;;;;;11.80;8.70;;;;;;;5.52;100.00;101269.94;5021053;28;20214;-47
2022/01/20 12:01:21;;;;;;;13.90;9.07;;;;;;;5.38;100.00;101282.38;5049239;28;20184;-48
2022/01/20 12:03:51;;;;;;;12.73;8.00;;;;;;;5.36;100.00;101284.03;5041960;28;20193;-48
2022/01/20 12:06:23;;;;;;;9.00;7.13;;;;;;;5.59;100.00;101276.97;5017085;28;20193;-47
2022/01/20 12:09:06;;;;;;;11.17;7.73;;;;;;;6.12;100.00;101270.69;5020503;28;20235;-47
2022/01/20 12:11:39;;;;;;;10.77;7.90;;;;;;;6.49;100.00;101269.88;5012304;28;20208;-47
2022/01/20 12:14:06;;;;;;;9.47;7.10;;;;;;;6.66;100.00;101272.84;4992235;28;20216;-46
2022/01/20 12:16:33;;;;;;;9.37;6.60;;;;;;;6.78;100.00;101272.25;5011135;28;20222;-46
2022/01/20 12:19:00;;;;;;;9.83;6.43;;;;;;;6.83;100.00;101275.78;5037146;28;20255;-47
2022/01/20 12:21:32;;;;;;;8.60;6.13;;;;;;;6.86;100.00;101269.88;5049348;28;20709;-46
2022/01/20 12:23:59;;;;;;;8.00;5.57;;;;;;;6.79;100.00;101270.53;5025027;28;20188;-47
2022/01/20 12:26:24;;;;;;;10.97;6.83;;;;;;;6.60;100.00;101275.25;5011490;28;20214;-46
2022/01/20 12:29:08;;;;;;;9.27;6.00;;;;;;;6.41;100.00;101302.25;5016724;28;20264;-48
2022/01/20 12:31:49;;;;;;;4.70;2.10;;;;;;;5.87;97.79;101319.72;4998186;28;20225;-47